Time;durP1;ratioP1;P1;durP2;ratioP2;P2;SDS_P1;SDS_P2;PMS_P1;PMS_P2;Temp;Humidity;BMP_temperature;BMP_pressure;BME280_temperature;BME280_humidity;BME280_pressure;Samples;Min_cycle;Max_cycle;Signal;HPM_P1;HPM_P2
2021/07/20 00:00:28;;;;;;;6.20;3.85;;;25.90;92.40;;;;;;5045289;28;20044;-75
2021/07/20 00:03:00;;;;;;;5.82;3.80;;;25.90;92.30;;;;;;5031653;28;20094;-75
2021/07/20 00:05:32;;;;;;;4.75;3.53;;;25.70;92.50;;;;;;5043659;28;20430;-75
2021/07/20 00:08:03;;;;;;;7.25;4.03;;;25.70;92.70;;;;;;5063394;28;20048;-75
2021/07/20 00:10:36;;;;;;;6.97;3.88;;;25.60;92.70;;;;;;5033861;28;20049;-75
2021/07/20 00:16:52;;;;;;;5.03;3.42;;;25.60;92.40;;;;;;5058754;28;20044;-75
2021/07/20 00:19:25;;;;;;;8.80;3.75;;;25.70;92.30;;;;;;5047091;28;20036;-73
2021/07/20 00:22:10;;;;;;;5.70;3.30;;;25.70;92.20;;;;;;5057004;28;20052;-72
2021/07/20 00:24:54;;;;;;;5.43;4.07;;;25.70;92.20;;;;;;5046383;28;20033;-75
2021/07/20 00:27:33;;;;;;;8.57;3.97;;;25.60;92.70;;;;;;5041925;28;20131;-73
2021/07/20 00:30:12;;;;;;;12.68;5.40;;;25.60;93.00;;;;;;5044574;28;20140;-75
2021/07/20 00:32:46;;;;;;;7.68;4.38;;;25.40;93.40;;;;;;5064717;28;20044;-73
2021/07/20 00:35:15;;;;;;;6.88;4.13;;;25.50;93.20;;;;;;5057319;28;20044;-73
2021/07/20 00:37:47;;;;;;;7.00;4.38;;;25.40;93.30;;;;;;5043273;28;20033;-73
2021/07/20 00:40:19;;;;;;;6.43;3.65;;;25.40;93.30;;;;;;5037825;28;20048;-73
2021/07/20 00:42:53;;;;;;;8.88;3.78;;;25.40;93.10;;;;;;5044417;28;20048;-74
2021/07/20 00:45:25;;;;;;;5.18;3.45;;;25.40;93.20;;;;;;5059037;28;20044;-73
2021/07/20 00:47:55;;;;;;;7.40;4.03;;;25.40;93.00;;;;;;5061579;28;20041;-73
2021/07/20 00:50:26;;;;;;;7.13;3.92;;;25.30;93.20;;;;;;5027433;28;20452;-73
2021/07/20 00:52:58;;;;;;;6.70;3.75;;;25.30;93.20;;;;;;5058229;28;20068;-73
2021/07/20 00:55:28;;;;;;;8.48;4.18;;;25.20;93.40;;;;;;5060336;28;20060;-73
2021/07/20 00:57:59;;;;;;;8.15;3.95;;;25.30;93.50;;;;;;5026665;28;20478;-73
2021/07/20 01:00:29;;;;;;;9.32;4.20;;;25.30;93.30;;;;;;5057596;28;20533;-73
2021/07/20 01:02:59;;;;;;;5.65;4.10;;;25.10;93.70;;;;;;5044294;28;20131;-73
2021/07/20 01:05:30;;;;;;;7.20;4.57;;;25.00;94.20;;;;;;5042974;28;20056;-73
2021/07/20 01:08:05;;;;;;;7.43;3.75;;;25.00;94.60;;;;;;5056778;28;20139;-73
2021/07/20 01:10:40;;;;;;;8.15;4.25;;;24.90;94.50;;;;;;5046076;28;20135;-73
2021/07/20 01:13:14;;;;;;;7.60;4.22;;;24.90;94.50;;;;;;5043852;28;20156;-73
2021/07/20 01:15:47;;;;;;;8.13;3.58;;;25.00;94.20;;;;;;5045185;28;20057;-73
2021/07/20 01:18:19;;;;;;;5.95;3.65;;;24.90;94.10;;;;;;5042795;28;20080;-73
2021/07/20 01:20:48;;;;;;;14.98;4.38;;;24.80;94.10;;;;;;5027390;28;20411;-74
2021/07/20 01:23:31;;;;;;;9.63;4.55;;;24.70;94.40;;;;;;5062611;28;20053;-74
2021/07/20 01:26:00;;;;;;;4.88;3.42;;;24.70;94.40;;;;;;5042253;28;20059;-73
2021/07/20 01:28:31;;;;;;;6.63;3.80;;;24.70;94.10;;;;;;5036824;28;20090;-73
2021/07/20 01:31:03;;;;;;;4.97;3.50;;;24.70;94.00;;;;;;5059351;28;20056;-74
2021/07/20 01:33:38;;;;;;;5.68;3.35;;;24.80;93.60;;;;;;5046936;28;20365;-73
2021/07/20 01:36:09;;;;;;;6.38;3.95;;;24.70;93.90;;;;;;5039187;28;20053;-73
2021/07/20 01:38:46;;;;;;;7.28;4.00;;;24.50;94.50;;;;;;5060483;28;20543;-73
2021/07/20 01:41:17;;;;;;;8.50;3.95;;;24.40;94.70;;;;;;5052230;28;20536;-74
2021/07/20 01:43:51;;;;;;;6.50;3.88;;;24.40;94.80;;;;;;5045149;28;20048;-73
2021/07/20 01:46:21;;;;;;;6.22;3.45;;;24.50;94.70;;;;;;5041846;28;20421;-73
2021/07/20 01:48:51;;;;;;;10.32;4.90;;;24.50;94.50;;;;;;5042057;28;20045;-73
2021/07/20 01:51:22;;;;;;;6.85;4.28;;;24.60;94.80;;;;;;5040925;28;20078;-73
2021/07/20 01:53:56;;;;;;;10.10;5.25;;;24.50;95.20;;;;;;5046707;28;20056;-73
2021/07/20 01:56:34;;;;;;;9.88;5.88;;;24.50;95.50;;;;;;5062122;28;20055;-76
2021/07/20 01:59:04;;;;;;;11.00;5.55;;;24.30;96.20;;;;;;5053156;28;20044;-76
2021/07/20 02:02:15;;;;;;;13.35;5.88;;;24.30;96.70;;;;;;5040006;28;20037;-76
2021/07/20 02:10:13;;;;;;;11.40;5.60;;;24.20;96.70;;;;;;5056089;28;20053;-76
2021/07/20 02:13:07;;;;;;;9.00;4.80;;;24.00;96.70;;;;;;5063030;28;20075;-76
2021/07/20 02:15:49;;;;;;;10.25;5.38;;;23.80;96.70;;;;;;5062050;28;20036;-76
2021/07/20 02:18:30;;;;;;;6.95;3.97;;;23.80;96.70;;;;;;5044208;28;20049;-76
2021/07/20 02:21:09;;;;;;;6.95;4.00;;;23.70;96.70;;;;;;5040885;28;20106;-76
2021/07/20 02:23:47;;;;;;;7.60;4.00;;;23.70;96.70;;;;;;5036987;28;20052;-76
2021/07/20 02:26:20;;;;;;;6.78;4.13;;;23.70;96.70;;;;;;5040433;28;20052;-76
2021/07/20 02:28:53;;;;;;;6.95;4.28;;;23.70;96.70;;;;;;5028535;28;20050;-76
2021/07/20 02:31:23;;;;;;;6.10;4.28;;;23.90;96.70;;;;;;5042972;28;20049;-76
2021/07/20 02:33:52;;;;;;;7.22;4.45;;;23.80;96.70;;;;;;5044160;28;20046;-76
2021/07/20 02:36:22;;;;;;;6.93;4.90;;;23.60;96.70;;;;;;5043590;28;20075;-76
2021/07/20 02:38:52;;;;;;;6.60;4.53;;;23.40;96.70;;;;;;5038897;28;20424;-75
2021/07/20 02:41:28;;;;;;;9.82;4.63;;;23.30;96.70;;;;;;5041956;28;20087;-75
2021/07/20 02:43:58;;;;;;;6.95;3.95;;;23.40;96.70;;;;;;5032799;28;20041;-76
2021/07/20 02:46:28;;;;;;;8.88;4.53;;;23.50;96.70;;;;;;5042123;28;20451;-76
2021/07/20 02:49:00;;;;;;;5.22;3.75;;;23.60;96.70;;;;;;5039500;28;20041;-76
2021/07/20 02:51:30;;;;;;;7.15;4.20;;;23.60;96.70;;;;;;5044468;28;20076;-75
2021/07/20 02:54:02;;;;;;;5.72;4.40;;;23.60;96.70;;;;;;5041382;28;20057;-76
2021/07/20 02:56:35;;;;;;;6.68;4.05;;;23.60;96.70;;;;;;5026386;28;20090;-75
2021/07/20 02:59:07;;;;;;;7.28;4.15;;;23.70;96.70;;;;;;5036815;28;20040;-76
2021/07/20 03:02:09;;;;;;;8.95;4.22;;;23.70;96.70;;;;;;5010017;28;20544;-76
2021/07/20 03:04:41;;;;;;;9.00;4.82;;;23.70;96.70;;;;;;5041185;28;20144;-76
2021/07/20 03:07:18;;;;;;;7.35;4.22;;;23.70;96.70;;;;;;5044225;28;20029;-76
2021/07/20 03:09:51;;;;;;;6.78;4.43;;;23.50;96.70;;;;;;5044414;28;20548;-75
2021/07/20 03:12:27;;;;;;;6.05;4.65;;;23.40;96.70;;;;;;5041581;28;20845;-76
2021/07/20 03:14:58;;;;;;;7.40;4.80;;;23.30;96.70;;;;;;5053406;28;20045;-75
2021/07/20 03:17:49;;;;;;;8.60;4.65;;;23.30;96.70;;;;;;5054332;28;20121;-76
2021/07/20 03:20:21;;;;;;;11.90;4.80;;;23.30;96.70;;;;;;5028131;28;20071;-76
2021/07/20 03:22:53;;;;;;;6.38;3.97;;;23.30;96.70;;;;;;5045559;28;20594;-76
2021/07/20 03:25:25;;;;;;;6.50;4.82;;;23.40;96.70;;;;;;5037227;28;20056;-76
2021/07/20 03:27:59;;;;;;;17.20;5.30;;;23.30;96.70;;;;;;5036773;28;20353;-76
2021/07/20 03:30:32;;;;;;;7.80;5.00;;;23.30;96.70;;;;;;5064297;28;20871;-75
2021/07/20 03:33:09;;;;;;;5.80;4.50;;;23.40;96.70;;;;;;5042655;28;20491;-75
2021/07/20 03:35:49;;;;;;;5.50;3.72;;;23.30;96.70;;;;;;5061809;28;20041;-75
2021/07/20 03:38:20;;;;;;;6.85;4.07;;;23.20;96.70;;;;;;5039685;28;20168;-76
2021/07/20 03:40:58;;;;;;;6.45;3.88;;;23.10;96.70;;;;;;5041139;28;20570;-76
2021/07/20 03:43:33;;;;;;;7.85;4.68;;;23.20;96.70;;;;;;5060747;28;20044;-76
2021/07/20 03:46:04;;;;;;;6.95;3.95;;;23.00;96.70;;;;;;5025597;28;20413;-76
2021/07/20 03:48:40;;;;;;;5.57;4.13;;;23.00;96.70;;;;;;5037800;28;20144;-76
2021/07/20 03:51:23;;;;;;;4.38;3.50;;;23.00;96.70;;;;;;5039497;28;20139;-75
2021/07/20 03:53:54;;;;;;;5.63;3.90;;;23.10;96.70;;;;;;5038245;28;20104;-75
2021/07/20 03:56:25;;;;;;;8.35;5.00;;;23.20;96.70;;;;;;5057814;28;20045;-76
2021/07/20 03:59:04;;;;;;;9.20;4.53;;;23.10;96.70;;;;;;5040468;28;20053;-75
2021/07/20 04:01:40;;;;;;;5.20;3.80;;;23.00;96.70;;;;;;5051820;28;20718;-75
2021/07/20 04:04:16;;;;;;;6.05;3.90;;;23.00;96.70;;;;;;5041503;28;20044;-76
2021/07/20 04:07:12;;;;;;;6.55;4.03;;;23.00;96.70;;;;;;5063519;28;20083;-75
2021/07/20 04:10:01;;;;;;;13.07;5.15;;;23.00;96.70;;;;;;5053324;28;20032;-75
2021/07/20 04:12:50;;;;;;;7.70;4.05;;;23.00;96.70;;;;;;5042370;28;20078;-75
2021/07/20 04:15:49;;;;;;;6.47;4.40;;;23.00;96.70;;;;;;5064306;28;20036;-77
2021/07/20 04:18:23;;;;;;;9.65;4.18;;;23.00;96.70;;;;;;5061922;28;20045;-75
2021/07/20 04:20:53;;;;;;;4.78;3.70;;;22.90;96.70;;;;;;5043689;28;20052;-75
2021/07/20 04:23:24;;;;;;;5.97;4.05;;;22.80;96.70;;;;;;5033874;28;20040;-76
2021/07/20 04:26:06;;;;;;;6.88;4.05;;;22.90;96.70;;;;;;5062009;28;20086;-75
2021/07/20 04:28:38;;;;;;;6.15;4.80;;;23.00;96.70;;;;;;5042270;28;20452;-75
2021/07/20 04:31:18;;;;;;;9.13;4.75;;;23.00;96.70;;;;;;5058767;28;20045;-75
2021/07/20 04:33:50;;;;;;;5.55;4.38;;;23.00;96.70;;;;;;5055856;28;20047;-75
2021/07/20 04:36:36;;;;;;;7.80;4.20;;;23.00;96.70;;;;;;5059265;28;20033;-75
2021/07/20 04:39:29;;;;;;;9.18;4.28;;;23.00;96.70;;;;;;5054746;28;20032;-75
2021/07/20 04:42:01;;;;;;;6.72;4.25;;;22.90;96.70;;;;;;5027195;28;20123;-75
2021/07/20 04:44:31;;;;;;;6.57;4.05;;;22.80;96.70;;;;;;5051894;28;20037;-75
2021/07/20 04:47:29;;;;;;;7.47;3.95;;;22.80;96.70;;;;;;5046955;28;20526;-75
2021/07/20 04:50:06;;;;;;;8.45;4.32;;;22.90;96.70;;;;;;5064379;28;20036;-76
2021/07/20 04:52:38;;;;;;;5.43;4.03;;;22.90;96.70;;;;;;5055682;28;20489;-75
2021/07/20 04:55:09;;;;;;;6.32;4.55;;;22.90;96.70;;;;;;5040211;28;20044;-75
2021/07/20 04:57:40;;;;;;;7.88;4.47;;;22.90;96.70;;;;;;5042005;28;20040;-76
2021/07/20 05:00:10;;;;;;;8.57;5.00;;;22.90;96.70;;;;;;5042504;28;20506;-76
2021/07/20 05:02:45;;;;;;;9.63;4.93;;;23.00;96.70;;;;;;5017679;28;20065;-76
2021/07/20 05:05:22;;;;;;;5.97;4.97;;;23.00;96.70;;;;;;5036329;28;20041;-76
2021/07/20 05:07:58;;;;;;;8.30;5.00;;;23.00;96.70;;;;;;5039788;28;20039;-75
2021/07/20 05:10:30;;;;;;;11.70;5.35;;;23.00;96.70;;;;;;5042825;28;20070;-75
2021/07/20 05:13:16;;;;;;;9.57;4.60;;;23.10;96.70;;;;;;5056782;28;20029;-75
2021/07/20 05:15:47;;;;;;;10.30;5.63;;;23.10;96.70;;;;;;5027609;28;20048;-75
2021/07/20 05:18:17;;;;;;;6.75;4.32;;;23.10;96.70;;;;;;5018925;28;20119;-76
2021/07/20 05:20:50;;;;;;;8.98;5.13;;;23.00;96.70;;;;;;5040070;28;20376;-76
2021/07/20 05:23:20;;;;;;;7.95;5.03;;;23.00;96.70;;;;;;5033534;28;20085;-75
2021/07/20 05:25:53;;;;;;;10.00;5.35;;;23.10;96.70;;;;;;5041640;28;20136;-75
2021/07/20 05:28:25;;;;;;;8.32;5.57;;;23.20;96.70;;;;;;5040226;28;20103;-76
2021/07/20 05:30:56;;;;;;;9.07;5.90;;;23.20;96.70;;;;;;5038085;28;20236;-76
2021/07/20 05:33:26;;;;;;;8.45;5.82;;;23.10;96.70;;;;;;5039094;28;20043;-75
2021/07/20 05:36:04;;;;;;;8.90;6.45;;;23.00;96.70;;;;;;5037455;28;20232;-75
2021/07/20 05:38:33;;;;;;;11.32;7.15;;;23.00;96.70;;;;;;5036129;28;20049;-75
2021/07/20 05:41:20;;;;;;;12.25;7.07;;;23.00;96.70;;;;;;5039122;28;20060;-75
2021/07/20 05:43:50;;;;;;;9.68;7.07;;;23.10;96.70;;;;;;5036559;28;20094;-75
2021/07/20 05:46:20;;;;;;;10.35;5.90;;;23.20;96.70;;;;;;5021931;28;20843;-75
2021/07/20 05:48:51;;;;;;;8.43;5.60;;;23.20;96.70;;;;;;5044295;28;20048;-75
2021/07/20 05:51:21;;;;;;;9.85;5.28;;;23.20;96.70;;;;;;5040682;28;20060;-78
2021/07/20 05:54:15;;;;;;;8.00;5.40;;;23.20;96.70;;;;;;5022670;28;20125;-79
2021/07/20 05:56:57;;;;;;;9.07;5.53;;;23.30;96.70;;;;;;5039307;28;20122;-77
2021/07/20 05:59:38;;;;;;;12.77;5.50;;;23.40;96.70;;;;;;5043224;28;20055;-79
2021/07/20 06:02:14;;;;;;;8.50;5.28;;;23.50;96.70;;;;;;5024152;28;20049;-78
2021/07/20 06:04:45;;;;;;;10.38;5.13;;;23.70;96.70;;;;;;5043392;28;20128;-78
2021/07/20 06:07:14;;;;;;;8.45;5.35;;;23.70;96.70;;;;;;5042578;28;20041;-76
2021/07/20 06:09:45;;;;;;;11.98;6.13;;;23.80;96.70;;;;;;5038120;28;20044;-76
2021/07/20 06:12:15;;;;;;;10.95;6.13;;;23.90;96.70;;;;;;5037651;28;20033;-76
2021/07/20 06:14:44;;;;;;;11.48;6.38;;;24.00;96.70;;;;;;5042223;28;20115;-76
2021/07/20 06:17:12;;;;;;;11.43;6.05;;;24.10;96.70;;;;;;5037044;28;20063;-76
2021/07/20 06:19:42;;;;;;;10.05;5.65;;;24.20;96.70;;;;;;5039992;28;20060;-75
2021/07/20 06:22:13;;;;;;;8.38;5.68;;;24.30;96.70;;;;;;5044482;28;20734;-81
2021/07/20 06:24:55;;;;;;;8.20;5.65;;;24.30;96.70;;;;;;5040714;28;20433;-76
2021/07/20 06:27:27;;;;;;;12.55;5.88;;;24.40;96.70;;;;;;5040221;28;20517;-76
2021/07/20 06:29:56;;;;;;;7.13;5.35;;;24.50;96.70;;;;;;5041142;28;20327;-76
2021/07/20 06:32:26;;;;;;;9.70;5.28;;;24.50;96.70;;;;;;5041775;28;20534;-76
2021/07/20 06:34:56;;;;;;;12.13;6.00;;;24.60;96.70;;;;;;5033929;28;20051;-76
2021/07/20 06:37:27;;;;;;;8.80;4.85;;;24.60;96.70;;;;;;5039971;28;20041;-76
2021/07/20 06:39:56;;;;;;;10.80;6.30;;;24.70;96.70;;;;;;5041492;28;20124;-76
2021/07/20 06:42:24;;;;;;;10.80;5.90;;;24.80;96.70;;;;;;5049724;28;20040;-76
2021/07/20 06:44:54;;;;;;;11.02;5.03;;;24.90;96.70;;;;;;5041348;28;20041;-76
2021/07/20 06:47:24;;;;;;;9.25;5.50;;;24.90;96.70;;;;;;5043657;28;20064;-76
2021/07/20 06:49:53;;;;;;;8.35;4.88;;;25.10;96.70;;;;;;5039655;28;20095;-75
2021/07/20 06:52:21;;;;;;;7.72;4.63;;;25.10;96.70;;;;;;5043957;28;20060;-75
2021/07/20 06:54:51;;;;;;;11.23;4.82;;;25.20;96.70;;;;;;5041344;28;20087;-75
2021/07/20 06:57:22;;;;;;;7.13;4.70;;;25.30;96.70;;;;;;5043455;28;20659;-75
2021/07/20 06:59:54;;;;;;;8.75;4.60;;;25.30;96.70;;;;;;5040982;28;20041;-75
2021/07/20 07:02:24;;;;;;;7.20;4.85;;;25.40;96.40;;;;;;5043230;28;20045;-76
2021/07/20 07:04:57;;;;;;;8.20;4.95;;;25.40;96.10;;;;;;5054060;28;20045;-75
2021/07/20 07:07:27;;;;;;;6.47;4.40;;;25.40;95.60;;;;;;5036890;28;20517;-75
2021/07/20 07:09:59;;;;;;;9.82;4.70;;;25.50;95.40;;;;;;5046068;28;20120;-75
2021/07/20 07:12:29;;;;;;;6.28;4.50;;;25.50;95.60;;;;;;5022453;28;20071;-75
2021/07/20 07:14:59;;;;;;;5.45;4.40;;;25.60;95.30;;;;;;5042569;28;20037;-76
2021/07/20 07:17:28;;;;;;;9.13;5.20;;;25.70;95.10;;;;;;5039793;28;20566;-75
2021/07/20 07:19:57;;;;;;;9.68;5.25;;;25.70;94.50;;;;;;5041079;28;20127;-75
2021/07/20 07:22:26;;;;;;;10.45;4.95;;;25.70;94.30;;;;;;5038256;28;20471;-75
2021/07/20 07:24:57;;;;;;;6.70;5.07;;;25.80;94.50;;;;;;5043422;28;20120;-75
2021/07/20 07:27:26;;;;;;;9.07;5.38;;;25.80;94.00;;;;;;5035771;28;20071;-75
2021/07/20 07:29:58;;;;;;;7.78;5.28;;;25.90;94.60;;;;;;5039023;28;20516;-75
2021/07/20 07:32:26;;;;;;;6.40;4.75;;;26.00;93.80;;;;;;5017768;28;20049;-75
2021/07/20 07:34:55;;;;;;;8.80;4.95;;;26.00;94.20;;;;;;5038232;28;20413;-75
2021/07/20 07:37:28;;;;;;;9.55;5.20;;;26.00;94.10;;;;;;5040929;28;20052;-76
2021/07/20 07:40:00;;;;;;;9.27;5.20;;;26.10;93.00;;;;;;5043412;28;20029;-75
2021/07/20 07:42:29;;;;;;;12.57;6.07;;;26.10;92.40;;;;;;5038787;28;20041;-75
2021/07/20 07:44:59;;;;;;;11.07;5.72;;;26.10;92.90;;;;;;5042618;28;20033;-75
2021/07/20 07:47:27;;;;;;;9.90;5.45;;;26.20;92.50;;;;;;5040206;28;20429;-76
2021/07/20 07:49:57;;;;;;;12.13;5.90;;;26.20;93.00;;;;;;5042135;28;20047;-76
2021/07/20 07:52:26;;;;;;;11.88;6.20;;;26.40;92.90;;;;;;5035903;28;20051;-76
2021/07/20 07:54:55;;;;;;;8.88;5.53;;;26.40;91.90;;;;;;5040717;28;20136;-75
2021/07/20 07:57:25;;;;;;;9.60;5.15;;;26.50;91.90;;;;;;5038128;28;20057;-75
2021/07/20 07:59:57;;;;;;;9.25;5.38;;;26.50;92.00;;;;;;5039330;28;20037;-75
2021/07/20 08:02:34;;;;;;;11.30;5.72;;;26.70;91.70;;;;;;5045706;28;20051;-75
2021/07/20 08:05:05;;;;;;;9.20;5.68;;;26.80;91.40;;;;;;5037549;28;20049;-75
2021/07/20 08:07:36;;;;;;;12.32;5.82;;;26.90;90.60;;;;;;5037520;28;20458;-75
2021/07/20 08:10:06;;;;;;;9.73;5.15;;;26.90;90.00;;;;;;5038087;28;20406;-75
2021/07/20 08:12:38;;;;;;;12.30;5.43;;;27.00;90.70;;;;;;5036736;28;20127;-76
2021/07/20 08:15:09;;;;;;;9.93;5.10;;;27.10;89.90;;;;;;5035616;28;20091;-75
2021/07/20 08:17:37;;;;;;;10.77;4.75;;;27.10;88.70;;;;;;5039654;28;20096;-75
2021/07/20 08:20:08;;;;;;;10.25;5.68;;;27.20;88.00;;;;;;5037117;28;20135;-75
2021/07/20 08:22:37;;;;;;;9.07;5.82;;;27.30;87.70;;;;;;5040972;28;20155;-76
2021/07/20 08:25:09;;;;;;;13.38;6.80;;;27.30;88.40;;;;;;5035694;28;20056;-75
2021/07/20 08:27:44;;;;;;;8.15;5.28;;;27.40;87.70;;;;;;5041610;28;20051;-75
2021/07/20 08:30:15;;;;;;;10.00;5.70;;;27.60;87.50;;;;;;5033753;28;20049;-75
2021/07/20 08:32:52;;;;;;;10.98;5.72;;;27.70;87.70;;;;;;5038410;28;20389;-75
2021/07/20 08:35:25;;;;;;;12.38;5.50;;;27.70;87.80;;;;;;5039277;28;20541;-75
2021/07/20 08:38:04;;;;;;;8.15;5.57;;;27.80;86.90;;;;;;5035996;28;20047;-75
2021/07/20 08:41:10;;;;;;;8.95;5.57;;;27.90;86.40;;;;;;5036250;28;20048;-75
2021/07/20 08:43:54;;;;;;;10.32;5.65;;;28.00;87.40;;;;;;4957183;28;20069;-76
2021/07/20 08:46:58;;;;;;;12.93;5.97;;;28.10;86.80;;;;;;5034467;28;20049;-75
2021/07/20 08:50:10;;;;;;;13.27;6.05;;;28.20;86.20;;;;;;5034579;28;20049;-75
2021/07/20 08:52:42;;;;;;;11.60;5.28;;;28.30;85.40;;;;;;4999774;28;20056;-76
2021/07/20 08:55:13;;;;;;;11.65;5.82;;;28.40;84.50;;;;;;5042666;28;20506;-75
2021/07/20 08:57:47;;;;;;;11.38;5.85;;;28.50;84.60;;;;;;5043103;28;20040;-75
2021/07/20 09:00:21;;;;;;;7.10;5.30;;;28.60;84.80;;;;;;5040244;28;20045;-75
2021/07/20 09:02:58;;;;;;;11.60;5.47;;;28.70;85.80;;;;;;5041174;28;20037;-75
2021/07/20 09:05:33;;;;;;;10.35;4.90;;;28.80;85.10;;;;;;5042489;28;20445;-76
2021/07/20 09:08:08;;;;;;;10.73;5.35;;;28.80;85.00;;;;;;5040842;28;21033;-75
2021/07/20 09:10:42;;;;;;;9.45;4.25;;;29.00;83.30;;;;;;5038498;28;20045;-76
2021/07/20 09:13:16;;;;;;;9.25;4.63;;;29.10;82.80;;;;;;5038011;28;20052;-75
2021/07/20 09:15:52;;;;;;;10.13;5.32;;;29.10;82.50;;;;;;5028836;28;20092;-75
2021/07/20 09:18:28;;;;;;;11.35;4.97;;;29.10;82.50;;;;;;5023949;28;20052;-76
2021/07/20 09:21:00;;;;;;;10.07;5.30;;;29.10;83.10;;;;;;5041273;28;20033;-76
2021/07/20 09:23:35;;;;;;;12.52;5.25;;;29.20;82.10;;;;;;5039221;28;20040;-75
2021/07/20 09:26:08;;;;;;;7.75;4.60;;;29.40;81.30;;;;;;5043833;28;20502;-75
2021/07/20 09:28:40;;;;;;;8.77;4.45;;;29.40;81.60;;;;;;5043418;28;20084;-75
2021/07/20 09:31:20;;;;;;;10.80;4.88;;;29.30;81.10;;;;;;5037476;28;20041;-75
2021/07/20 09:34:05;;;;;;;10.82;4.70;;;29.40;81.10;;;;;;5042252;28;20045;-76
2021/07/20 09:36:41;;;;;;;9.90;4.20;;;29.50;81.40;;;;;;5038178;28;20037;-75
2021/07/20 09:39:35;;;;;;;12.23;5.85;;;29.70;80.90;;;;;;5042100;28;20124;-75
2021/07/20 09:42:14;;;;;;;12.90;4.90;;;29.80;80.00;;;;;;5039174;28;20430;-75
2021/07/20 09:44:51;;;;;;;10.73;4.47;;;29.90;79.10;;;;;;5036504;28;20392;-76
2021/07/20 09:47:26;;;;;;;8.02;4.35;;;30.00;78.90;;;;;;5039251;28;20045;-76
2021/07/20 09:50:11;;;;;;;8.65;4.18;;;30.20;79.30;;;;;;5041587;28;20099;-75
2021/07/20 09:53:09;;;;;;;7.88;3.65;;;30.30;78.10;;;;;;5038450;28;20045;-76
2021/07/20 09:55:46;;;;;;;11.48;4.00;;;30.40;76.10;;;;;;5039273;28;20139;-75
2021/07/20 09:58:30;;;;;;;7.15;3.25;;;30.30;76.50;;;;;;5047436;28;20516;-76
2021/07/20 10:01:07;;;;;;;9.05;3.75;;;30.40;76.80;;;;;;5043182;28;20045;-76
2021/07/20 10:03:48;;;;;;;11.13;4.40;;;30.60;76.00;;;;;;5043788;28;20059;-75
2021/07/20 10:06:22;;;;;;;11.55;5.00;;;30.60;76.80;;;;;;5044731;28;20445;-76
2021/07/20 10:08:56;;;;;;;7.40;4.25;;;30.70;75.70;;;;;;5044144;28;20037;-76
2021/07/20 10:11:30;;;;;;;8.95;4.63;;;30.70;74.30;;;;;;5038192;28;20040;-76
2021/07/20 10:14:22;;;;;;;11.60;4.65;;;30.80;75.90;;;;;;5039342;28;20507;-76
2021/07/20 10:17:01;;;;;;;10.45;4.18;;;30.80;75.70;;;;;;5042567;28;20047;-77
2021/07/20 10:19:36;;;;;;;7.10;3.22;;;30.70;75.40;;;;;;5057692;28;20047;-76
2021/07/20 10:22:08;;;;;;;7.55;3.70;;;30.80;74.60;;;;;;5040849;28;20036;-77
2021/07/20 10:24:43;;;;;;;7.75;3.30;;;31.00;75.90;;;;;;5034588;28;20098;-77
2021/07/20 10:27:14;;;;;;;8.57;3.83;;;31.00;74.50;;;;;;5063426;28;20169;-77
2021/07/20 10:29:50;;;;;;;9.00;3.92;;;31.20;75.50;;;;;;5025689;28;20110;-77
2021/07/20 10:32:24;;;;;;;7.53;3.63;;;31.20;74.40;;;;;;5062771;28;20044;-76
2021/07/20 10:34:59;;;;;;;6.85;3.80;;;31.20;74.60;;;;;;5059687;28;20041;-76
2021/07/20 10:37:31;;;;;;;8.93;3.50;;;31.50;75.10;;;;;;5059814;28;20468;-75
2021/07/20 10:40:04;;;;;;;9.27;3.67;;;31.70;73.50;;;;;;5041408;28;20051;-76
2021/07/20 10:42:39;;;;;;;9.70;3.40;;;31.80;72.10;;;;;;5029306;28;20417;-76
2021/07/20 10:45:11;;;;;;;13.63;3.30;;;31.80;70.70;;;;;;5042018;28;20522;-76
2021/07/20 10:47:45;;;;;;;7.40;3.20;;;31.70;70.60;;;;;;5063020;28;20040;-76
2021/07/20 10:50:22;;;;;;;6.80;3.10;;;31.90;69.90;;;;;;5040606;28;20101;-76
2021/07/20 10:53:01;;;;;;;4.95;3.17;;;31.90;69.70;;;;;;5040950;28;20044;-76
2021/07/20 10:55:37;;;;;;;6.47;2.80;;;32.00;70.20;;;;;;5040351;28;20041;-76
2021/07/20 10:58:18;;;;;;;6.63;3.28;;;32.20;69.70;;;;;;5057035;28;20044;-75
2021/07/20 11:00:54;;;;;;;10.27;3.25;;;32.40;69.50;;;;;;5055425;28;20048;-76
2021/07/20 11:03:28;;;;;;;;;;;32.40;68.90;;;;;;5042352;28;20198;-76
2021/07/20 11:06:00;;;;;;;9.65;3.05;;;32.40;67.50;;;;;;5064126;28;19930;-76
2021/07/20 11:08:31;;;;;;;9.90;2.83;;;32.40;66.90;;;;;;5042533;28;20151;-77
2021/07/20 11:11:00;;;;;;;8.02;3.00;;;32.50;66.40;;;;;;5044913;28;20843;-76
2021/07/20 11:13:31;;;;;;;6.88;2.80;;;32.60;66.60;;;;;;5053013;28;20048;-76
2021/07/20 11:16:03;;;;;;;8.98;2.83;;;32.60;67.40;;;;;;5058874;28;20044;-76
2021/07/20 11:18:35;;;;;;;9.90;2.63;;;32.80;66.20;;;;;;4985712;28;1511318;-76
2021/07/20 11:21:09;;;;;;;8.68;2.40;;;32.90;65.40;;;;;;5043617;28;20049;-75
2021/07/20 11:23:40;;;;;;;7.47;1.95;;;33.00;64.00;;;;;;5039514;28;20044;-75
2021/07/20 11:26:09;;;;;;;6.07;1.90;;;33.00;62.60;;;;;;5039219;28;20041;-75
2021/07/20 11:28:39;;;;;;;9.70;2.55;;;33.00;64.60;;;;;;5039491;28;20428;-75
2021/07/20 11:31:12;;;;;;;4.35;1.85;;;33.30;64.50;;;;;;5021498;28;20044;-75
2021/07/20 11:33:49;;;;;;;6.35;2.63;;;33.30;64.90;;;;;;5039288;28;20419;-75
2021/07/20 11:36:23;;;;;;;6.97;2.83;;;33.40;65.20;;;;;;5036966;28;20040;-75
2021/07/20 11:38:56;;;;;;;7.95;2.58;;;33.40;66.40;;;;;;5038296;28;20127;-75
2021/07/20 11:41:38;;;;;;;7.63;2.55;;;33.50;66.20;;;;;;5040296;28;20049;-76
2021/07/20 11:44:15;;;;;;;8.65;3.30;;;33.60;65.60;;;;;;5039026;28;20036;-75
2021/07/20 11:46:51;;;;;;;5.25;2.88;;;33.60;65.90;;;;;;5034391;28;20053;-75
2021/07/20 11:49:30;;;;;;;6.53;3.20;;;33.50;65.80;;;;;;5034609;28;20041;-75
2021/07/20 11:52:05;;;;;;;7.65;3.15;;;33.70;66.50;;;;;;5040447;28;20494;-75
2021/07/20 11:54:47;;;;;;;5.83;3.27;;;33.60;65.70;;;;;;5041430;28;20048;-75
2021/07/20 11:57:52;;;;;;;7.30;2.97;;;33.60;66.00;;;;;;5037898;28;20039;-75
2021/07/20 12:00:30;;;;;;;5.85;3.30;;;33.60;66.10;;;;;;5038370;28;20037;-75
2021/07/20 12:03:18;;;;;;;8.38;3.20;;;33.80;66.80;;;;;;5038410;28;20072;-75
2021/07/20 12:06:15;;;;;;;8.65;3.60;;;33.90;66.00;;;;;;5036287;28;20105;-75
2021/07/20 12:08:59;;;;;;;6.68;3.75;;;33.90;67.00;;;;;;5039726;28;20208;-75
2021/07/20 12:11:30;;;;;;;10.25;3.45;;;34.00;67.60;;;;;;5038853;28;20067;-75
2021/07/20 12:13:59;;;;;;;7.40;3.30;;;34.00;67.90;;;;;;5042072;28;20437;-75
2021/07/20 12:16:28;;;;;;;6.78;3.58;;;34.00;67.60;;;;;;5037506;28;20450;-75
2021/07/20 12:18:58;;;;;;;6.10;3.55;;;34.10;67.00;;;;;;5036821;28;20078;-76
2021/07/20 12:21:29;;;;;;;9.32;3.10;;;34.10;66.60;;;;;;5022530;28;20041;-75
2021/07/20 12:24:05;;;;;;;7.65;3.22;;;34.30;66.90;;;;;;5040505;28;20479;-74
2021/07/20 12:26:34;;;;;;;8.18;3.67;;;34.30;66.40;;;;;;5035150;28;20143;-74
2021/07/20 12:29:04;;;;;;;7.93;3.78;;;34.20;66.20;;;;;;5038376;28;20037;-75
2021/07/20 12:31:32;;;;;;;5.75;3.55;;;34.30;66.10;;;;;;5035536;28;20036;-75
2021/07/20 12:34:02;;;;;;;6.75;3.30;;;34.30;65.60;;;;;;5038633;28;20490;-75
2021/07/20 12:36:31;;;;;;;6.15;2.75;;;34.40;66.00;;;;;;5040608;28;20556;-75
2021/07/20 12:39:12;;;;;;;9.68;4.00;;;34.50;65.70;;;;;;5035643;28;20494;-75
2021/07/20 12:41:47;;;;;;;7.05;4.15;;;34.50;68.00;;;;;;5031436;28;20056;-75
2021/07/20 12:44:34;;;;;;;8.20;4.57;;;34.60;68.70;;;;;;5034760;28;20045;-75
2021/07/20 12:47:08;;;;;;;6.95;3.80;;;34.50;69.00;;;;;;5024803;28;20073;-75
2021/07/20 12:49:37;;;;;;;6.90;3.90;;;34.30;68.30;;;;;;5037241;28;20056;-75
2021/07/20 12:52:06;;;;;;;6.25;3.60;;;34.30;68.40;;;;;;5042601;28;20861;-75
2021/07/20 12:54:40;;;;;;;8.23;4.38;;;34.40;68.60;;;;;;5034980;28;20044;-75
2021/07/20 12:57:10;;;;;;;7.00;3.38;;;34.40;69.10;;;;;;5040172;28;20049;-75
2021/07/20 12:59:59;;;;;;;6.78;3.38;;;34.50;68.00;;;;;;5037022;28;20041;-75
2021/07/20 13:02:30;;;;;;;7.40;3.25;;;34.40;67.60;;;;;;5036667;28;20053;-75
2021/07/20 13:04:59;;;;;;;5.85;3.05;;;34.30;68.20;;;;;;5035110;28;20045;-75
2021/07/20 13:07:32;;;;;;;7.93;3.10;;;34.30;66.50;;;;;;5042006;28;20052;-74
2021/07/20 13:10:04;;;;;;;6.88;2.75;;;34.30;67.00;;;;;;5045288;28;20071;-75
2021/07/20 13:12:32;;;;;;;8.38;3.00;;;34.40;66.50;;;;;;5041578;28;20045;-75
2021/07/20 13:15:19;;;;;;;5.00;2.33;;;34.40;66.30;;;;;;5025616;28;20098;-75
2021/07/20 13:17:51;;;;;;;7.95;3.13;;;34.60;65.40;;;;;;5050568;28;20060;-75
2021/07/20 13:20:20;;;;;;;7.22;3.33;;;34.60;64.90;;;;;;5022385;28;20048;-75
2021/07/20 13:22:48;;;;;;;4.38;2.63;;;34.70;65.40;;;;;;5042691;28;20098;-75
2021/07/20 13:25:18;;;;;;;7.15;2.90;;;34.80;64.60;;;;;;5061030;28;20827;-74
2021/07/20 13:27:48;;;;;;;5.80;2.65;;;34.80;66.00;;;;;;5055038;28;20513;-75
2021/07/20 13:30:19;;;;;;;7.00;2.50;;;34.90;65.60;;;;;;5038653;28;20512;-75
2021/07/20 13:32:49;;;;;;;6.80;2.90;;;34.90;65.60;;;;;;5035730;28;20490;-75